createdAt,value
2023-04-21T00:03:47.899Z,10.80
2023-04-21T00:08:49.873Z,11.60
2023-04-21T00:13:51.203Z,10.57
2023-04-21T00:18:52.453Z,10.53
2023-04-21T00:23:53.814Z,9.82
2023-04-21T00:28:55.278Z,10.63
2023-04-21T00:33:56.559Z,10.80
2023-04-21T00:38:57.846Z,10.60
2023-04-21T00:44:06.251Z,8.97
2023-04-21T00:49:07.860Z,9.93
2023-04-21T00:54:10.705Z,9.63
2023-04-21T00:59:11.958Z,9.75
2023-04-21T01:04:13.627Z,10.45
2023-04-21T01:09:15.101Z,10.00
2023-04-21T01:14:16.408Z,9.95
2023-04-21T01:19:18.347Z,9.90
2023-04-21T01:24:19.970Z,9.23
2023-04-21T01:29:21.343Z,9.95
2023-04-21T01:34:22.683Z,9.10
2023-04-21T01:39:24.004Z,9.60
2023-04-21T01:44:26.042Z,9.50
2023-04-21T01:49:27.389Z,10.52
2023-04-21T01:54:28.696Z,9.45
2023-04-21T01:59:29.963Z,9.80
2023-04-21T02:04:31.391Z,10.23
2023-04-21T02:09:32.844Z,9.13
2023-04-21T02:14:34.134Z,10.30
2023-04-21T02:19:35.509Z,10.85
2023-04-21T02:24:36.803Z,10.10
2023-04-21T02:29:38.128Z,9.95
2023-04-21T02:34:39.393Z,10.23
2023-04-21T02:39:40.686Z,10.48
2023-04-21T02:44:42.953Z,10.75
2023-04-21T02:49:44.332Z,10.07
2023-04-21T02:54:45.667Z,10.85
2023-04-21T02:59:46.931Z,9.80
2023-04-21T03:04:48.173Z,9.55
2023-04-21T03:09:49.442Z,9.20
2023-04-21T03:14:50.695Z,8.70
2023-04-21T03:19:51.970Z,9.40
2023-04-21T03:24:53.256Z,9.90
2023-04-21T03:29:54.573Z,10.10
2023-04-21T03:34:55.836Z,9.77
2023-04-21T03:39:57.181Z,9.43
2023-04-21T03:45:02.134Z,9.55
2023-04-21T03:50:04.008Z,8.93
2023-04-21T03:55:08.858Z,10.27
2023-04-21T04:00:13.745Z,9.38
2023-04-21T04:05:15.103Z,9.30
2023-04-21T04:10:16.468Z,9.48
2023-04-21T04:15:17.891Z,8.83
2023-04-21T04:20:19.187Z,10.80
2023-04-21T04:25:21.385Z,8.85
2023-04-21T04:30:23.967Z,8.33
2023-04-21T04:35:25.351Z,8.93
2023-04-21T04:40:26.723Z,9.97
2023-04-21T04:45:28.540Z,8.38
2023-04-21T04:50:29.869Z,9.60
2023-04-21T04:55:31.130Z,9.03
2023-04-21T05:00:32.572Z,9.27
2023-04-21T05:05:33.849Z,9.23
2023-04-21T05:10:35.443Z,8.90
2023-04-21T05:15:36.733Z,9.27
2023-04-21T05:20:40.932Z,9.60
2023-04-21T05:25:42.196Z,9.30
2023-04-21T05:30:43.484Z,9.63
2023-04-21T05:35:44.735Z,8.52
2023-04-21T05:40:52.326Z,9.00
2023-04-21T05:45:53.800Z,8.33
2023-04-21T05:50:55.799Z,8.10
2023-04-21T05:55:57.068Z,8.90
2023-04-21T06:00:58.391Z,9.82
2023-04-21T06:06:00.620Z,9.77
2023-04-21T06:11:01.982Z,11.30
2023-04-21T06:16:03.604Z,11.45
2023-04-21T06:21:05.260Z,9.73
2023-04-21T06:26:07.367Z,25.42
2023-04-21T06:31:09.865Z,12.75
2023-04-21T06:36:11.284Z,10.57
2023-04-21T06:41:12.591Z,11.18
2023-04-21T06:46:14.382Z,8.87
2023-04-21T06:51:15.963Z,7.35
2023-04-21T06:56:17.250Z,6.47
2023-04-21T07:01:18.620Z,7.30
2023-04-21T07:06:19.957Z,6.53
2023-04-21T07:11:21.265Z,6.80
2023-04-21T07:16:22.769Z,5.77
2023-04-21T07:21:24.304Z,5.85
2023-04-21T07:26:25.675Z,5.70
2023-04-21T07:31:27.062Z,5.70
2023-04-21T07:36:30.518Z,5.53
2023-04-21T07:41:32.477Z,5.72
2023-04-21T07:46:33.856Z,5.67
2023-04-21T07:51:35.365Z,5.88
2023-04-21T07:56:36.740Z,6.20
2023-04-21T08:01:38.108Z,5.80
2023-04-21T08:06:39.611Z,5.67
2023-04-21T08:11:41.048Z,5.45
2023-04-21T08:16:42.921Z,5.03
2023-04-21T08:21:44.259Z,4.67
2023-04-21T08:26:45.782Z,4.60
2023-04-21T08:31:47.185Z,4.78
2023-04-21T08:36:48.668Z,5.00
2023-04-21T08:41:50.813Z,4.97
2023-04-21T08:46:52.802Z,4.97
2023-04-21T08:51:54.081Z,4.30
2023-04-21T08:57:01.483Z,5.00
2023-04-21T09:02:16.437Z,3.50
2023-04-21T09:07:34.635Z,4.15
2023-04-21T09:12:38.594Z,4.43
2023-04-21T09:17:39.917Z,5.40
2023-04-21T09:22:41.515Z,4.00
2023-04-21T09:27:43.112Z,3.87
2023-04-21T09:32:44.499Z,3.67
2023-04-21T09:37:46.005Z,3.40
2023-04-21T09:42:47.436Z,3.60
2023-04-21T09:47:53.366Z,3.10
2023-04-21T09:52:55.668Z,2.03
2023-04-21T09:58:00.710Z,2.35
2023-04-21T10:03:04.876Z,2.30
2023-04-21T10:08:07.396Z,2.20
2023-04-21T10:13:13.012Z,2.15
2023-04-21T10:18:22.419Z,2.40
2023-04-21T10:23:27.796Z,2.20
2023-04-21T10:28:55.348Z,2.35
2023-04-21T10:34:08.734Z,1.93
2023-04-21T10:39:13.007Z,1.90
2023-04-21T10:44:15.825Z,2.05
2023-04-21T10:49:27.401Z,2.28
2023-04-21T10:54:45.831Z,2.50
2023-04-21T10:59:48.165Z,2.40
2023-04-21T11:04:53.852Z,2.88
2023-04-21T11:09:59.313Z,2.87
2023-04-21T11:15:03.016Z,3.38
2023-04-21T11:20:04.577Z,3.70
2023-04-21T11:25:06.235Z,3.17
2023-04-21T11:30:07.853Z,3.20
2023-04-21T11:35:09.205Z,3.33
2023-04-21T11:40:10.699Z,4.20
2023-04-21T11:45:21.217Z,3.85
2023-04-21T11:50:32.086Z,3.93
2023-04-21T11:55:34.676Z,4.00
2023-04-21T12:00:36.377Z,3.42
2023-04-21T12:05:37.831Z,3.90
2023-04-21T12:10:43.968Z,4.17
2023-04-21T12:15:45.920Z,4.25
2023-04-21T12:20:51.395Z,4.23
2023-04-21T12:25:52.660Z,4.70
2023-04-21T12:30:53.909Z,4.82
2023-04-21T12:35:55.271Z,4.50
2023-04-21T12:40:56.586Z,4.53
2023-04-21T12:45:57.963Z,5.00
2023-04-21T12:50:59.295Z,4.80
2023-04-21T12:56:04.566Z,5.03
2023-04-21T13:01:07.034Z,4.70
2023-04-21T13:06:08.829Z,4.30
2023-04-21T13:11:10.579Z,4.13
2023-04-21T13:16:11.954Z,8.45
2023-04-21T13:21:13.886Z,4.10
2023-04-21T13:26:16.101Z,4.20
2023-04-21T13:31:17.562Z,5.20
2023-04-21T13:36:19.022Z,4.45
2023-04-21T13:41:20.706Z,4.63
2023-04-21T13:46:22.539Z,5.00
2023-04-21T13:51:23.996Z,4.28
2023-04-21T13:56:25.506Z,4.05
2023-04-21T14:01:26.922Z,4.50
2023-04-21T14:06:28.499Z,4.07
2023-04-21T14:11:29.846Z,4.70
2023-04-21T14:16:31.878Z,3.40
2023-04-21T14:21:33.335Z,4.60
2023-04-21T14:26:37.043Z,4.53
2023-04-21T14:31:39.004Z,3.70
2023-04-21T14:36:41.496Z,3.83
2023-04-21T14:41:42.871Z,3.67
2023-04-21T14:46:48.156Z,3.60
2023-04-21T14:51:58.752Z,4.67
2023-04-21T14:57:18.024Z,3.92
2023-04-21T15:02:22.354Z,4.00
2023-04-21T15:07:26.631Z,4.47
2023-04-21T15:12:27.951Z,3.70
2023-04-21T15:17:29.305Z,4.25
2023-04-21T15:22:30.739Z,3.58
2023-04-21T15:27:32.044Z,3.80
2023-04-21T15:32:33.389Z,3.95
2023-04-21T15:37:34.825Z,3.78
2023-04-21T15:42:36.183Z,3.63
2023-04-21T15:47:37.504Z,2.38
2023-04-21T15:52:42.627Z,2.30
2023-04-21T15:57:44.711Z,3.20
2023-04-21T16:02:47.339Z,2.57
2023-04-21T16:07:48.826Z,1.60
2023-04-21T16:12:50.953Z,2.10
2023-04-21T16:17:52.913Z,1.80
2023-04-21T16:22:54.323Z,1.90
2023-04-21T16:27:55.647Z,1.90
2023-04-21T16:32:56.915Z,1.30
2023-04-21T16:37:58.535Z,1.75
2023-04-21T16:42:59.901Z,2.08
2023-04-21T16:48:01.553Z,2.70
2023-04-21T16:53:03.258Z,3.27
2023-04-21T16:58:04.553Z,2.30
2023-04-21T17:03:05.964Z,1.88
2023-04-21T17:08:07.479Z,1.60
2023-04-21T17:13:08.850Z,1.70
2023-04-21T17:18:10.324Z,2.90
2023-04-21T17:23:11.700Z,3.00
2023-04-21T17:28:15.259Z,3.00
2023-04-21T17:33:17.745Z,3.40
2023-04-21T17:38:19.116Z,3.07
2023-04-21T17:43:20.578Z,1.65
2023-04-21T17:48:21.826Z,1.50
2023-04-21T17:53:23.133Z,1.33
2023-04-21T17:58:27.880Z,1.33
2023-04-21T18:03:29.338Z,1.27
2023-04-21T18:08:31.114Z,1.40
2023-04-21T18:13:32.420Z,4.57
2023-04-21T18:18:33.705Z,3.00
2023-04-21T18:23:35.154Z,3.50
2023-04-21T18:28:36.694Z,3.20
2023-04-21T18:33:38.228Z,3.73
2023-04-21T18:38:39.585Z,2.47
2023-04-21T18:43:40.914Z,4.65
2023-04-21T18:48:42.196Z,2.00
2023-04-21T18:53:46.710Z,2.35
2023-04-21T18:58:48.073Z,2.70
2023-04-21T19:03:49.582Z,3.20
2023-04-21T19:08:51.236Z,2.70
2023-04-21T19:13:52.612Z,1.83
2023-04-21T19:18:54.268Z,2.27
2023-04-21T19:23:57.445Z,2.70
2023-04-21T19:28:59.512Z,3.73
2023-04-21T19:34:00.764Z,5.30
2023-04-21T19:39:02.184Z,3.42
2023-04-21T19:44:05.069Z,3.43
2023-04-21T19:49:06.576Z,3.63
2023-04-21T19:54:11.755Z,3.17
2023-04-21T19:59:13.788Z,3.87
2023-04-21T20:04:16.316Z,3.53
2023-04-21T20:09:17.869Z,5.93
2023-04-21T20:14:20.338Z,5.38
2023-04-21T20:19:22.828Z,4.70
2023-04-21T20:24:24.112Z,4.13
2023-04-21T20:29:25.515Z,4.20
2023-04-21T20:34:26.864Z,3.63
2023-04-21T20:39:28.354Z,3.85
2023-04-21T20:44:31.232Z,3.90
2023-04-21T20:49:32.611Z,4.63
2023-04-21T20:54:34.708Z,4.70
2023-04-21T20:59:36.489Z,4.33
2023-04-21T21:04:38.051Z,3.80
2023-04-21T21:09:40.124Z,4.00
2023-04-21T21:14:41.714Z,4.17
2023-04-21T21:19:43.307Z,4.65
2023-04-21T21:24:44.614Z,4.38
2023-04-21T21:29:45.995Z,4.50
2023-04-21T21:34:47.480Z,4.65
2023-04-21T21:39:50.989Z,4.43
2023-04-21T21:44:52.265Z,4.40
2023-04-21T21:49:55.095Z,5.05
2023-04-21T21:54:59.465Z,5.20
2023-04-21T22:00:01.811Z,5.50
2023-04-21T22:05:06.129Z,5.55
2023-04-21T22:10:07.709Z,5.47
2023-04-21T22:15:09.433Z,5.60
2023-04-21T22:20:11.988Z,4.90
2023-04-21T22:25:13.259Z,5.72
2023-04-21T22:30:14.714Z,5.57
2023-04-21T22:35:16.196Z,5.73
2023-04-21T22:40:17.506Z,5.75
2023-04-21T22:45:18.959Z,6.07
2023-04-21T22:50:20.320Z,6.13
2023-04-21T22:55:21.587Z,7.30
2023-04-21T23:00:22.883Z,7.47
2023-04-21T23:05:24.200Z,6.80
2023-04-21T23:10:25.538Z,7.50
2023-04-21T23:15:27.594Z,8.40
2023-04-21T23:20:28.908Z,7.40
2023-04-21T23:25:30.646Z,6.23
2023-04-21T23:30:32.111Z,6.10
2023-04-21T23:35:33.535Z,6.17
2023-04-21T23:40:34.899Z,5.45
2023-04-21T23:45:36.291Z,6.13
2023-04-21T23:50:37.922Z,5.23
2023-04-21T23:55:39.255Z,5.80
